createdAt,value
2023-05-08T00:02:21.795Z,52.30
2023-05-08T00:04:49.573Z,52.04
2023-05-08T00:07:17.454Z,51.92
2023-05-08T00:09:46.076Z,52.40
2023-05-08T00:12:13.910Z,51.25
2023-05-08T00:14:41.800Z,51.65
2023-05-08T00:17:09.642Z,52.16
2023-05-08T00:19:38.920Z,51.97
2023-05-08T00:22:06.819Z,52.14
2023-05-08T00:24:34.623Z,51.82
2023-05-08T00:27:02.368Z,51.99
2023-05-08T00:29:30.135Z,52.25
2023-05-08T00:31:58.038Z,52.17
2023-05-08T00:34:25.924Z,52.53
2023-05-08T00:36:57.607Z,52.45
2023-05-08T00:39:25.476Z,52.24
2023-05-08T00:41:53.921Z,52.27
2023-05-08T00:44:21.774Z,52.79
2023-05-08T00:46:50.197Z,52.28
2023-05-08T00:49:18.815Z,52.16
2023-05-08T00:51:49.271Z,52.14
2023-05-08T00:54:18.561Z,52.15
2023-05-08T00:56:46.992Z,52.21
2023-05-08T00:59:17.501Z,52.51
2023-05-08T01:01:47.797Z,52.32
2023-05-08T01:04:33.576Z,52.14
2023-05-08T01:07:02.706Z,52.03
2023-05-08T01:09:32.045Z,52.18
2023-05-08T01:12:08.739Z,52.48
2023-05-08T01:14:48.719Z,52.50
2023-05-08T01:17:25.734Z,52.53
2023-05-08T01:20:15.347Z,52.43
2023-05-08T01:23:06.454Z,52.68
2023-05-08T01:26:12.746Z,52.41
2023-05-08T01:29:11.336Z,52.91
2023-05-08T01:31:53.133Z,52.56
2023-05-08T01:34:26.004Z,52.83
2023-05-08T01:36:59.359Z,53.03
2023-05-08T01:39:35.922Z,52.50
2023-05-08T01:42:09.195Z,52.77
2023-05-08T01:44:42.581Z,53.02
2023-05-08T01:47:12.694Z,52.51
2023-05-08T01:49:46.035Z,52.88
2023-05-08T01:52:29.094Z,52.93
2023-05-08T01:54:59.920Z,52.88
2023-05-08T01:57:31.094Z,53.17
2023-05-08T02:00:02.246Z,52.81
2023-05-08T02:02:38.679Z,53.19
2023-05-08T02:05:11.950Z,53.32
2023-05-08T02:07:42.131Z,53.55
2023-05-08T02:10:12.703Z,53.37
2023-05-08T02:12:43.217Z,52.83
2023-05-08T02:15:14.896Z,53.18
2023-05-08T02:17:44.894Z,53.35
2023-05-08T02:20:15.856Z,53.31
2023-05-08T02:22:45.603Z,53.05
2023-05-08T02:25:14.765Z,52.97
2023-05-08T02:27:45.483Z,53.01
2023-05-08T02:30:16.087Z,53.16
2023-05-08T02:32:45.468Z,53.66
2023-05-08T02:35:17.273Z,53.44
2023-05-08T02:37:47.800Z,53.85
2023-05-08T02:40:18.062Z,53.36
2023-05-08T02:42:47.520Z,53.49
2023-05-08T02:45:15.632Z,53.10
2023-05-08T02:47:49.511Z,53.42
2023-05-08T02:50:24.539Z,53.57
2023-05-08T02:52:59.634Z,53.76
2023-05-08T02:55:37.133Z,53.40
2023-05-08T02:58:13.101Z,53.64
2023-05-08T03:00:48.594Z,53.35
2023-05-08T03:03:24.088Z,53.25
2023-05-08T03:05:56.903Z,53.29
2023-05-08T03:08:30.685Z,53.44
2023-05-08T03:11:02.361Z,53.28
2023-05-08T03:13:35.450Z,53.49
2023-05-08T03:16:04.666Z,53.08
2023-05-08T03:18:36.073Z,53.23
2023-05-08T03:21:07.473Z,53.23
2023-05-08T03:23:38.037Z,53.35
2023-05-08T03:26:07.128Z,53.31
2023-05-08T03:28:37.666Z,53.49
2023-05-08T03:31:07.122Z,53.39
2023-05-08T03:33:38.202Z,53.55
2023-05-08T03:36:08.298Z,53.40
2023-05-08T03:38:36.835Z,53.53
2023-05-08T03:41:05.913Z,53.40
2023-05-08T03:43:34.504Z,53.37
2023-05-08T03:46:06.544Z,53.56
2023-05-08T03:48:35.401Z,53.81
2023-05-08T03:51:04.791Z,53.75
2023-05-08T03:53:36.098Z,54.28
2023-05-08T03:56:05.461Z,54.16
2023-05-08T03:58:39.566Z,53.93
2023-05-08T04:01:12.997Z,53.79
2023-05-08T04:03:57.910Z,54.05
2023-05-08T04:06:35.669Z,53.42
2023-05-08T04:09:14.316Z,53.88
2023-05-08T04:11:49.165Z,54.09
2023-05-08T04:14:20.270Z,54.00
2023-05-08T04:16:51.441Z,53.98
2023-05-08T04:19:24.202Z,54.20
2023-05-08T04:21:55.775Z,53.82
2023-05-08T04:24:28.896Z,53.90
2023-05-08T04:26:58.122Z,54.12
2023-05-08T04:29:26.819Z,54.32
2023-05-08T04:31:55.587Z,54.32
2023-05-08T04:34:24.286Z,53.95
2023-05-08T04:36:52.747Z,53.82
2023-05-08T04:39:22.488Z,53.65
2023-05-08T04:41:52.739Z,54.21
2023-05-08T04:44:21.372Z,54.16
2023-05-08T04:46:50.234Z,54.19
2023-05-08T04:49:18.702Z,54.60
2023-05-08T04:51:46.494Z,54.47
2023-05-08T04:54:15.067Z,53.97
2023-05-08T04:56:43.106Z,54.14
2023-05-08T04:59:14.202Z,54.35
2023-05-08T05:01:43.978Z,54.38
2023-05-08T05:04:12.397Z,54.15
2023-05-08T05:06:40.692Z,54.18
2023-05-08T05:09:09.221Z,54.22
2023-05-08T05:11:37.447Z,54.33
2023-05-08T05:14:06.222Z,54.11
2023-05-08T05:16:35.906Z,53.94
2023-05-08T05:19:04.919Z,54.19
2023-05-08T05:21:33.568Z,54.04
2023-05-08T05:24:01.740Z,54.54
2023-05-08T05:26:29.492Z,53.94
2023-05-08T05:28:57.664Z,54.07
2023-05-08T05:31:25.832Z,54.11
2023-05-08T05:33:55.415Z,54.28
2023-05-08T05:36:23.476Z,54.25
2023-05-08T05:38:51.408Z,54.06
2023-05-08T05:41:19.453Z,54.34
2023-05-08T05:43:47.545Z,53.76
2023-05-08T05:46:15.683Z,53.66
2023-05-08T05:48:43.722Z,53.83
2023-05-08T05:51:13.750Z,54.02
2023-05-08T05:53:41.869Z,53.98
2023-05-08T05:56:09.635Z,53.94
2023-05-08T05:58:37.682Z,53.90
2023-05-08T06:01:05.679Z,53.22
2023-05-08T06:03:33.723Z,53.48
2023-05-08T06:06:02.164Z,54.03
2023-05-08T06:08:31.435Z,53.93
2023-05-08T06:10:59.513Z,54.19
2023-05-08T06:13:27.863Z,54.06
2023-05-08T06:15:57.601Z,54.24
2023-05-08T06:18:26.427Z,54.00
2023-05-08T06:20:58.866Z,53.46
2023-05-08T06:23:27.133Z,53.29
2023-05-08T06:25:56.715Z,53.59
2023-05-08T06:28:26.101Z,54.19
2023-05-08T06:30:54.263Z,53.89
2023-05-08T06:33:23.582Z,54.02
2023-05-08T06:35:52.621Z,54.12
2023-05-08T06:38:20.464Z,54.78
2023-05-08T06:40:50.160Z,54.52
2023-05-08T06:43:19.537Z,54.62
2023-05-08T06:45:47.408Z,54.53
2023-05-08T06:48:15.313Z,54.17
2023-05-08T06:50:43.494Z,53.46
2023-05-08T06:53:11.344Z,54.49
2023-05-08T06:55:39.085Z,54.39
2023-05-08T06:58:07.142Z,55.30
2023-05-08T07:00:36.460Z,54.94
2023-05-08T07:03:04.543Z,54.85
2023-05-08T07:05:32.599Z,54.69
2023-05-08T07:08:00.579Z,54.57
2023-05-08T07:10:28.855Z,54.43
2023-05-08T07:12:56.707Z,54.09
2023-05-08T07:15:26.417Z,54.37
2023-05-08T07:17:56.525Z,54.12
2023-05-08T07:20:25.447Z,53.91
2023-05-08T07:22:53.528Z,54.11
2023-05-08T07:25:21.357Z,54.12
2023-05-08T07:27:49.229Z,54.18
2023-05-08T07:30:17.544Z,54.10
2023-05-08T07:32:45.397Z,53.74
2023-05-08T07:35:15.608Z,54.40
2023-05-08T07:37:44.453Z,54.25
2023-05-08T07:40:12.857Z,54.49
2023-05-08T07:42:41.923Z,54.43
2023-05-08T07:45:11.910Z,54.23
2023-05-08T07:47:40.456Z,54.50
2023-05-08T07:50:08.797Z,54.44
2023-05-08T07:52:38.786Z,54.98
2023-05-08T07:55:07.979Z,54.81
2023-05-08T07:57:38.019Z,54.52
2023-05-08T08:00:07.012Z,54.53
2023-05-08T08:02:41.372Z,54.22
2023-05-08T08:05:10.316Z,54.42
2023-05-08T08:07:39.665Z,53.97
2023-05-08T08:10:09.348Z,54.01
2023-05-08T08:12:37.250Z,54.38
2023-05-08T08:15:06.109Z,54.73
2023-05-08T08:17:33.935Z,54.96
2023-05-08T08:20:01.920Z,55.31
2023-05-08T08:22:29.832Z,55.51
2023-05-08T08:24:59.296Z,55.31
2023-05-08T08:27:27.180Z,54.24
2023-05-08T08:30:08.343Z,54.54
2023-05-08T08:32:43.282Z,54.94
2023-05-08T08:35:12.110Z,55.47
2023-05-08T08:37:40.255Z,55.50
2023-05-08T08:40:10.620Z,55.56
2023-05-08T08:42:38.557Z,55.92
2023-05-08T08:45:07.844Z,55.81
2023-05-08T08:47:38.361Z,56.04
2023-05-08T08:50:11.322Z,55.47
2023-05-08T08:52:49.402Z,55.23
2023-05-08T08:55:19.532Z,54.90
2023-05-08T08:58:00.030Z,55.42
2023-05-08T09:00:31.270Z,55.69
2023-05-08T09:02:59.418Z,55.46
2023-05-08T09:05:27.628Z,55.79
2023-05-08T09:07:56.528Z,55.64
2023-05-08T09:10:26.832Z,56.03
2023-05-08T09:12:54.936Z,55.92
2023-05-08T09:15:22.859Z,55.80
2023-05-08T09:17:51.013Z,56.02
2023-05-08T09:20:19.668Z,55.53
2023-05-08T09:22:47.696Z,55.23
2023-05-08T09:25:15.907Z,55.35
2023-05-08T09:27:45.409Z,54.71
2023-05-08T09:30:15.522Z,55.26
2023-05-08T09:32:45.126Z,55.58
2023-05-08T09:35:13.705Z,55.93
2023-05-08T09:37:43.557Z,55.54
2023-05-08T09:40:16.587Z,56.03
2023-05-08T09:42:46.172Z,55.60
2023-05-08T09:45:27.635Z,53.94
2023-05-08T09:47:55.678Z,52.80
2023-05-08T09:50:23.886Z,53.58
2023-05-08T09:52:51.872Z,53.80
2023-05-08T09:55:20.119Z,54.41
2023-05-08T09:57:57.593Z,54.59
2023-05-08T10:00:26.434Z,54.10
2023-05-08T10:03:00.232Z,54.40
2023-05-08T10:05:31.759Z,53.82
2023-05-08T10:08:18.441Z,53.29
2023-05-08T10:10:46.699Z,53.36
2023-05-08T10:13:16.537Z,53.64
2023-05-08T10:15:45.983Z,53.18
2023-05-08T10:18:18.147Z,53.95
2023-05-08T10:20:48.659Z,54.80
2023-05-08T10:23:19.154Z,54.44
2023-05-08T10:25:48.751Z,55.27
2023-05-08T10:28:28.643Z,54.62
2023-05-08T10:31:00.873Z,53.95
2023-05-08T10:33:32.452Z,54.55
2023-05-08T10:36:01.091Z,53.76
2023-05-08T10:38:29.048Z,53.38
2023-05-08T10:41:01.456Z,53.18
2023-05-08T10:43:32.061Z,53.67
2023-05-08T10:46:10.494Z,53.97
2023-05-08T10:48:49.139Z,53.63
2023-05-08T10:51:22.918Z,53.88
2023-05-08T10:53:54.871Z,53.84
2023-05-08T10:56:27.357Z,54.69
2023-05-08T10:58:59.330Z,54.90
2023-05-08T11:01:28.260Z,54.13
2023-05-08T11:03:57.016Z,54.19
2023-05-08T11:06:45.935Z,54.44
2023-05-08T11:09:22.418Z,53.90
2023-05-08T11:12:06.806Z,54.64
2023-05-08T11:14:37.905Z,54.64
2023-05-08T11:17:07.354Z,55.04
2023-05-08T11:19:36.488Z,55.12
2023-05-08T11:22:32.713Z,54.60
2023-05-08T11:25:03.044Z,53.84
2023-05-08T11:28:13.823Z,53.92
2023-05-08T11:30:45.738Z,53.86
2023-05-08T11:33:18.395Z,53.71
2023-05-08T11:35:52.543Z,53.40
2023-05-08T11:38:35.745Z,53.26
2023-05-08T11:41:08.509Z,52.83
2023-05-08T11:44:09.562Z,52.11
2023-05-08T11:46:43.230Z,52.77
2023-05-08T11:49:17.274Z,53.38
2023-05-08T11:51:47.172Z,52.88
2023-05-08T11:54:17.817Z,52.17
2023-05-08T11:56:47.964Z,51.09
2023-05-08T11:59:16.493Z,52.30
2023-05-08T12:01:53.515Z,52.31
2023-05-08T12:04:24.617Z,51.84
2023-05-08T12:06:58.517Z,52.47
2023-05-08T12:09:26.323Z,50.23
2023-05-08T12:11:58.980Z,51.04
2023-05-08T12:14:26.886Z,51.15
2023-05-08T12:16:56.144Z,50.53
2023-05-08T12:19:24.109Z,50.56
2023-05-08T12:21:51.974Z,49.34
2023-05-08T12:24:23.060Z,49.90
2023-05-08T12:26:54.268Z,49.79
2023-05-08T12:29:22.798Z,50.34
2023-05-08T12:31:51.029Z,50.61
2023-05-08T12:34:21.359Z,49.91
2023-05-08T12:36:49.160Z,49.20
2023-05-08T12:39:18.782Z,50.26
2023-05-08T12:41:50.204Z,49.44
2023-05-08T12:44:20.183Z,49.50
2023-05-08T12:46:50.997Z,48.83
2023-05-08T12:49:28.677Z,48.76
2023-05-08T12:52:07.054Z,48.91
2023-05-08T12:54:36.360Z,49.13
2023-05-08T12:57:10.187Z,48.86
2023-05-08T12:59:38.154Z,46.80
2023-05-08T13:02:06.183Z,47.54
2023-05-08T13:04:39.470Z,46.61
2023-05-08T13:07:07.265Z,46.31
2023-05-08T13:09:35.173Z,46.76
2023-05-08T13:12:03.254Z,46.94
2023-05-08T13:14:31.086Z,47.66
2023-05-08T13:16:59.849Z,47.14
2023-05-08T13:19:28.660Z,46.87
2023-05-08T13:21:58.073Z,47.26
2023-05-08T13:24:26.860Z,46.71
2023-05-08T13:26:54.695Z,46.97
2023-05-08T13:29:22.501Z,47.22
2023-05-08T13:31:50.328Z,46.25
2023-05-08T13:34:18.689Z,45.84
2023-05-08T13:36:46.881Z,46.32
2023-05-08T13:39:16.240Z,46.07
2023-05-08T13:41:44.197Z,46.63
2023-05-08T13:44:12.136Z,45.55
2023-05-08T13:46:39.906Z,45.62
2023-05-08T13:49:07.835Z,45.95
2023-05-08T13:51:35.624Z,45.98
2023-05-08T13:54:03.390Z,45.37
2023-05-08T13:56:32.595Z,45.49
2023-05-08T13:59:00.392Z,45.64
2023-05-08T14:01:28.631Z,45.78
2023-05-08T14:03:56.871Z,45.21
2023-05-08T14:06:24.797Z,44.36
2023-05-08T14:08:55.317Z,44.45
2023-05-08T14:11:24.750Z,44.49
2023-05-08T14:13:53.895Z,44.56
2023-05-08T14:16:22.054Z,44.81
2023-05-08T14:18:49.855Z,44.17
2023-05-08T14:21:17.880Z,44.56
2023-05-08T14:23:45.785Z,44.19
2023-05-08T14:26:14.276Z,43.97
2023-05-08T14:28:42.132Z,43.59
2023-05-08T14:31:11.337Z,43.17
2023-05-08T14:33:39.205Z,43.76
2023-05-08T14:36:07.674Z,43.96
2023-05-08T14:38:35.428Z,42.81
2023-05-08T14:41:04.904Z,43.39
2023-05-08T14:43:32.964Z,43.70
2023-05-08T14:46:00.976Z,42.97
2023-05-08T14:48:30.145Z,41.79
2023-05-08T14:50:58.621Z,41.97
2023-05-08T14:53:26.882Z,42.32
2023-05-08T14:55:55.063Z,42.98
2023-05-08T14:58:23.438Z,43.49
2023-05-08T15:00:51.286Z,43.30
2023-05-08T15:03:19.437Z,43.14
2023-05-08T15:05:48.959Z,43.44
2023-05-08T15:08:17.354Z,43.88
2023-05-08T15:10:45.201Z,43.06
2023-05-08T15:13:13.414Z,43.52
2023-05-08T15:15:41.281Z,42.98
2023-05-08T15:18:09.257Z,43.36
2023-05-08T15:20:37.293Z,43.72
2023-05-08T15:23:06.585Z,43.16
2023-05-08T15:25:34.775Z,43.43
2023-05-08T15:28:02.718Z,43.84
2023-05-08T15:30:30.644Z,44.66
2023-05-08T15:32:58.625Z,43.95
2023-05-08T15:35:26.647Z,44.28
2023-05-08T15:37:54.460Z,44.95
2023-05-08T15:40:23.722Z,45.04
2023-05-08T15:42:52.598Z,45.36
2023-05-08T15:45:20.735Z,45.63
2023-05-08T15:47:48.750Z,45.55
2023-05-08T15:50:16.826Z,45.92
2023-05-08T15:52:44.671Z,45.92
2023-05-08T15:55:12.522Z,45.90
2023-05-08T15:57:41.745Z,46.33
2023-05-08T16:00:11.069Z,46.61
2023-05-08T16:02:39.304Z,46.82
2023-05-08T16:05:08.032Z,47.27
2023-05-08T16:07:35.887Z,50.98
2023-05-08T16:10:05.343Z,51.97
2023-05-08T16:12:34.646Z,54.32
2023-05-08T16:15:03.867Z,53.11
2023-05-08T16:17:31.696Z,58.18
2023-05-08T16:20:00.774Z,61.18
2023-05-08T16:22:28.713Z,62.93
2023-05-08T16:24:56.939Z,63.53
2023-05-08T16:27:25.051Z,64.10
2023-05-08T16:29:52.864Z,64.92
2023-05-08T16:32:22.355Z,66.16
2023-05-08T16:34:50.214Z,66.72
2023-05-08T16:37:18.045Z,67.98
2023-05-08T16:39:46.005Z,68.11
2023-05-08T16:42:13.935Z,68.06
2023-05-08T16:44:41.978Z,68.20
2023-05-08T16:47:10.254Z,67.80
2023-05-08T16:49:40.687Z,67.86
2023-05-08T16:52:08.690Z,66.80
2023-05-08T16:54:36.558Z,66.82
2023-05-08T16:57:04.663Z,66.31
2023-05-08T16:59:33.101Z,66.38
2023-05-08T17:02:00.926Z,66.41
2023-05-08T17:04:30.735Z,66.84
2023-05-08T17:07:00.546Z,66.95
2023-05-08T17:09:29.025Z,66.64
2023-05-08T17:11:58.372Z,67.27
2023-05-08T17:14:26.435Z,66.73
2023-05-08T17:16:54.304Z,67.22
2023-05-08T17:19:22.304Z,66.75
2023-05-08T17:21:50.770Z,65.79
2023-05-08T17:24:20.360Z,65.53
2023-05-08T17:26:48.766Z,65.46
2023-05-08T17:29:19.540Z,65.62
2023-05-08T17:31:47.411Z,66.09
2023-05-08T17:34:15.416Z,66.68
2023-05-08T17:36:43.882Z,65.98
2023-05-08T17:39:12.562Z,66.44
2023-05-08T17:41:42.226Z,66.09
2023-05-08T17:44:10.135Z,66.01
2023-05-08T17:46:38.189Z,64.81
2023-05-08T17:49:06.203Z,64.92
2023-05-08T17:51:34.057Z,65.20
2023-05-08T17:54:02.250Z,64.68
2023-05-08T17:56:31.775Z,65.07
2023-05-08T17:59:01.148Z,65.31
2023-05-08T18:01:30.668Z,65.09
2023-05-08T18:03:58.830Z,65.51
2023-05-08T18:06:26.826Z,65.17
2023-05-08T18:08:54.647Z,65.50
2023-05-08T18:11:25.262Z,65.78
2023-05-08T18:13:55.552Z,65.28
2023-05-08T18:18:52.926Z,64.76
2023-05-08T18:21:20.723Z,64.73
2023-05-08T18:23:48.487Z,64.81
2023-05-08T18:28:45.244Z,65.31
2023-05-08T18:31:13.651Z,65.67
2023-05-08T18:33:43.346Z,65.25
2023-05-08T18:36:11.177Z,65.21
2023-05-08T18:38:41.776Z,66.27
2023-05-08T18:41:09.527Z,66.75
2023-05-08T18:43:37.297Z,66.84
2023-05-08T18:46:12.467Z,66.57
2023-05-08T18:48:42.208Z,66.56
2023-05-08T18:51:10.184Z,66.52
2023-05-08T18:53:38.913Z,65.90
2023-05-08T18:56:07.436Z,65.95
2023-05-08T18:58:35.561Z,66.24
2023-05-08T19:01:03.485Z,66.14
2023-05-08T19:03:32.460Z,65.84
2023-05-08T19:06:01.791Z,65.55
2023-05-08T19:08:29.678Z,66.05
2023-05-08T19:10:57.798Z,65.37
2023-05-08T19:13:25.743Z,65.89
2023-05-08T19:15:54.394Z,65.67
2023-05-08T19:18:22.352Z,65.93
2023-05-08T19:20:50.646Z,65.88
2023-05-08T19:23:20.076Z,66.51
2023-05-08T19:25:48.008Z,66.53
2023-05-08T19:28:15.995Z,66.56
2023-05-08T19:30:44.187Z,66.02
2023-05-08T19:33:12.056Z,65.87
2023-05-08T19:35:39.874Z,66.10
2023-05-08T19:38:07.799Z,66.05
2023-05-08T19:40:48.406Z,66.25
2023-05-08T19:43:23.429Z,66.26
2023-05-08T19:45:51.829Z,66.06
2023-05-08T19:48:20.409Z,66.41
2023-05-08T19:50:48.691Z,66.03
2023-05-08T19:53:19.287Z,65.55
2023-05-08T19:55:49.554Z,65.69
2023-05-08T19:58:18.224Z,65.87
2023-05-08T20:00:50.962Z,66.05
2023-05-08T20:03:19.452Z,66.43
2023-05-08T20:05:47.641Z,65.70
2023-05-08T20:08:15.545Z,65.56
2023-05-08T20:10:43.712Z,66.15
2023-05-08T20:13:13.129Z,66.22
2023-05-08T20:15:40.940Z,66.04
2023-05-08T20:18:09.022Z,66.29
2023-05-08T20:20:36.936Z,66.23
2023-05-08T20:23:04.749Z,65.41
2023-05-08T20:25:32.541Z,65.35
2023-05-08T20:28:00.682Z,65.65
2023-05-08T20:30:30.008Z,65.39
2023-05-08T20:33:04.453Z,64.51
2023-05-08T20:35:32.949Z,64.90
2023-05-08T20:38:00.669Z,65.41
2023-05-08T20:40:28.751Z,66.02
2023-05-08T20:42:56.730Z,65.87
2023-05-08T20:45:25.448Z,66.44
2023-05-08T20:47:54.715Z,66.29
2023-05-08T20:50:22.934Z,66.10
2023-05-08T20:52:52.101Z,65.86
2023-05-08T20:55:20.516Z,66.62
2023-05-08T20:57:49.133Z,66.35
2023-05-08T21:00:17.327Z,66.10
2023-05-08T21:02:47.188Z,65.71
2023-05-08T21:05:16.977Z,65.65
2023-05-08T21:07:45.408Z,65.92
2023-05-08T21:10:14.616Z,66.12
2023-05-08T21:12:44.496Z,66.00
2023-05-08T21:15:13.196Z,66.41
2023-05-08T21:17:41.191Z,66.85
2023-05-08T21:20:10.515Z,67.25
2023-05-08T21:22:39.664Z,67.33
2023-05-08T21:25:17.397Z,67.28
2023-05-08T21:27:46.303Z,67.24
2023-05-08T21:30:16.674Z,67.64
2023-05-08T21:32:46.440Z,67.39
2023-05-08T21:35:15.766Z,67.59
2023-05-08T21:37:46.175Z,67.76
2023-05-08T21:40:15.123Z,67.33
2023-05-08T21:42:43.526Z,67.57
2023-05-08T21:45:14.918Z,67.44
2023-05-08T21:47:43.109Z,67.74
2023-05-08T21:50:11.410Z,68.00
2023-05-08T21:52:39.214Z,67.51
2023-05-08T21:55:10.223Z,67.57
2023-05-08T21:57:38.608Z,67.59
2023-05-08T22:00:09.009Z,67.69
2023-05-08T22:02:47.531Z,67.57
2023-05-08T22:05:15.952Z,67.60
2023-05-08T22:07:44.600Z,67.38
2023-05-08T22:10:14.047Z,67.37
2023-05-08T22:12:42.561Z,67.32
2023-05-08T22:15:25.574Z,67.38
2023-05-08T22:17:57.692Z,67.09
2023-05-08T22:20:26.162Z,66.15
2023-05-08T22:22:54.001Z,66.19
2023-05-08T22:25:23.378Z,66.21
2023-05-08T22:27:51.149Z,65.99
2023-05-08T22:30:19.048Z,65.91
2023-05-08T22:32:54.434Z,66.12
2023-05-08T22:35:23.672Z,65.99
2023-05-08T22:37:51.592Z,65.85
2023-05-08T22:40:20.008Z,65.96
2023-05-08T22:42:49.544Z,66.24
2023-05-08T22:45:17.635Z,65.67
2023-05-08T22:47:45.629Z,65.72
2023-05-08T22:50:13.884Z,65.98
2023-05-08T22:52:42.164Z,66.19
2023-05-08T22:55:10.590Z,65.88
2023-05-08T22:57:38.395Z,65.94
2023-05-08T23:00:10.517Z,66.72
2023-05-08T23:02:38.448Z,66.03
2023-05-08T23:05:07.432Z,66.06
2023-05-08T23:07:35.598Z,65.71
2023-05-08T23:10:03.640Z,65.54
2023-05-08T23:12:31.688Z,65.72
2023-05-08T23:14:59.575Z,65.97
2023-05-08T23:17:28.866Z,66.18
2023-05-08T23:19:56.676Z,66.43
2023-05-08T23:22:24.614Z,66.37
2023-05-08T23:24:52.520Z,66.30
2023-05-08T23:27:20.471Z,65.88
2023-05-08T23:29:48.641Z,66.00
2023-05-08T23:32:16.912Z,66.11
2023-05-08T23:34:46.199Z,65.91
2023-05-08T23:37:16.692Z,65.71
2023-05-08T23:39:44.598Z,66.38
2023-05-08T23:42:13.335Z,66.18
2023-05-08T23:44:41.053Z,65.71
2023-05-08T23:47:08.888Z,65.77
2023-05-08T23:49:36.720Z,66.27
2023-05-08T23:52:06.658Z,66.43
2023-05-08T23:54:34.495Z,66.64
2023-05-08T23:57:02.235Z,66.91
2023-05-08T23:59:30.049Z,66.39
